Time;durP1;ratioP1;P1;durP2;ratioP2;P2;SDS_P1;SDS_P2;PMS_P1;PMS_P2;Temp;Humidity;BMP_temperature;BMP_pressure;BME280_temperature;BME280_humidity;BME280_pressure;Samples;Min_cycle;Max_cycle;Signal;HPM_P1;HPM_P2
2022/03/08 00:02:09;;;;;;;6.22;3.25;;;;;;;;;;5032765;28;20399;-65
2022/03/08 00:04:35;;;;;;;7.63;3.70;;;12.40;79.00;;;;;;5033981;28;20050;-61
2022/03/08 00:07:01;;;;;;;7.38;3.67;;;12.60;79.10;;;;;;5032015;28;20041;-62
2022/03/08 00:09:27;;;;;;;5.95;3.25;;;12.40;76.40;;;;;;5015658;28;20487;-62
2022/03/08 00:11:53;;;;;;;6.63;3.70;;;12.50;79.10;;;;;;5032275;28;20076;-62
2022/03/08 00:14:19;;;;;;;6.57;3.80;;;;;;;;;;5048254;28;20076;-66
2022/03/08 00:16:45;;;;;;;6.68;3.30;;;12.20;79.10;;;;;;5032789;28;20116;-61
2022/03/08 00:19:12;;;;;;;6.00;3.35;;;12.70;79.10;;;;;;5034947;28;20553;-64
2022/03/08 00:21:39;;;;;;;8.05;4.13;;;;;;;;;;5015320;28;20110;-65
2022/03/08 00:24:05;;;;;;;6.35;3.42;;;12.60;79.20;;;;;;5031093;28;20045;-65
2022/03/08 00:26:31;;;;;;;6.70;3.75;;;12.30;79.00;;;;;;5032964;28;20048;-65
2022/03/08 00:28:57;;;;;;;8.02;3.50;;;12.30;76.50;;;;;;5031381;28;20124;-65
2022/03/08 00:31:23;;;;;;;7.07;4.07;;;12.50;79.20;;;;;;5015842;28;20045;-65
2022/03/08 00:33:48;;;;;;;8.02;3.92;;;12.20;79.10;;;;;;5031794;28;20190;-65
2022/03/08 00:36:14;;;;;;;7.18;3.50;;;12.30;79.10;;;;;;5031861;28;20053;-65
2022/03/08 00:38:40;;;;;;;6.07;3.45;;;12.20;79.20;;;;;;5017598;28;20042;-65
2022/03/08 00:41:06;;;;;;;7.80;3.58;;;12.20;79.10;;;;;;5014361;28;20056;-65
2022/03/08 00:43:31;;;;;;;5.63;3.30;;;12.10;79.00;;;;;;5013840;28;20065;-65
2022/03/08 00:45:57;;;;;;;6.22;3.35;;;12.20;79.00;;;;;;5013678;28;20054;-65
2022/03/08 00:48:23;;;;;;;6.82;3.90;;;12.30;79.10;;;;;;5014003;28;20134;-65
2022/03/08 00:50:49;;;;;;;6.50;3.55;;;12.20;79.00;;;;;;5033273;28;20050;-65
2022/03/08 00:53:15;;;;;;;6.43;3.50;;;12.00;76.30;;;;;;5017563;28;20081;-65
2022/03/08 00:55:41;;;;;;;6.60;3.70;;;12.20;79.20;;;;;;5017734;28;20076;-65
2022/03/08 00:58:07;;;;;;;8.68;3.50;;;;;;;;;;5034785;28;20517;-66
2022/03/08 01:00:33;;;;;;;6.38;3.60;;;12.00;79.00;;;;;;5024984;28;20041;-65
2022/03/08 01:02:59;;;;;;;6.50;3.75;;;11.90;79.00;;;;;;5035722;28;20069;-65
2022/03/08 01:05:26;;;;;;;8.32;3.95;;;12.00;76.60;;;;;;5035285;28;20103;-65
2022/03/08 01:07:52;;;;;;;7.72;3.67;;;12.10;79.30;;;;;;5034987;28;20120;-66
2022/03/08 01:10:19;;;;;;;6.75;3.40;;;12.00;79.20;;;;;;5036959;28;20140;-66
2022/03/08 01:12:45;;;;;;;6.43;3.40;;;12.20;79.10;;;;;;5051554;28;20495;-64
2022/03/08 01:15:11;;;;;;;7.30;3.67;;;;;;;;;;5017532;28;20052;-65
2022/03/08 01:17:37;;;;;;;6.93;3.97;;;12.20;79.20;;;;;;5035557;28;20124;-65
2022/03/08 01:20:05;;;;;;;6.03;3.50;;;12.30;79.40;;;;;;5036215;28;20072;-66
2022/03/08 01:22:31;;;;;;;6.68;3.58;;;12.00;79.00;;;;;;5036016;28;20042;-65
2022/03/08 01:24:57;;;;;;;8.32;3.65;;;12.10;79.10;;;;;;5052357;28;20041;-65
2022/03/08 01:27:22;;;;;;;6.45;3.42;;;12.00;79.00;;;;;;5030011;28;20037;-65
2022/03/08 01:29:48;;;;;;;6.45;3.60;;;12.00;79.00;;;;;;5036105;28;20042;-66
2022/03/08 01:32:14;;;;;;;5.82;3.60;;;12.10;79.10;;;;;;5034732;28;20041;-65
2022/03/08 01:34:40;;;;;;;6.10;3.50;;;;;;;;;;5036281;28;20406;-66
2022/03/08 01:37:06;;;;;;;6.25;3.85;;;;;;;;;;5034914;28;20373;-66
2022/03/08 01:39:32;;;;;;;6.07;3.92;;;11.90;78.90;;;;;;5036678;28;20049;-65
2022/03/08 01:41:58;;;;;;;6.72;3.60;;;;;;;;;;5035453;28;20404;-66
2022/03/08 01:44:24;;;;;;;5.95;3.40;;;12.20;79.20;;;;;;5036222;28;20049;-66
2022/03/08 01:46:50;;;;;;;6.82;3.92;;;;;;;;;;5035679;28;20502;-65
2022/03/08 01:49:16;;;;;;;6.82;3.55;;;12.00;78.90;;;;;;5033855;28;20041;-65
2022/03/08 01:51:43;;;;;;;6.00;3.40;;;11.90;78.90;;;;;;5035669;28;20175;-65
2022/03/08 01:54:09;;;;;;;6.32;3.67;;;12.00;79.00;;;;;;5015930;28;20050;-65
2022/03/08 01:56:35;;;;;;;6.65;3.60;;;12.00;79.00;;;;;;5035960;28;20041;-65
2022/03/08 01:59:02;;;;;;;7.90;3.67;;;12.10;79.20;;;;;;5035850;28;20449;-65
2022/03/08 02:01:27;;;;;;;6.03;3.40;;;12.00;78.80;;;;;;5049090;28;20059;-65
2022/03/08 02:03:53;;;;;;;5.80;3.53;;;12.00;78.80;;;;;;5035534;28;20491;-64
2022/03/08 02:06:19;;;;;;;6.10;3.70;;;12.00;76.30;;;;;;5027740;28;20095;-64
2022/03/08 02:08:45;;;;;;;6.05;3.70;;;11.90;78.90;;;;;;5035400;28;20045;-65
2022/03/08 02:11:11;;;;;;;6.32;3.80;;;12.20;79.10;;;;;;5035394;28;20041;-65
2022/03/08 02:13:38;;;;;;;6.15;3.50;;;;;;;;;;5035694;28;20479;-65
2022/03/08 02:16:05;;;;;;;6.40;4.10;;;11.80;78.70;;;;;;5033726;28;20176;-65
2022/03/08 02:18:30;;;;;;;5.93;3.22;;;11.90;78.70;;;;;;5023482;28;20046;-65
2022/03/08 02:20:58;;;;;;;7.10;3.83;;;11.90;75.20;;;;;;5034426;28;20042;-65
2022/03/08 02:23:23;;;;;;;6.35;3.85;;;11.90;78.80;;;;;;5019094;28;20113;-66
2022/03/08 02:25:49;;;;;;;6.00;4.03;;;;;;;;;;5029778;28;20562;-64
2022/03/08 02:28:15;;;;;;;7.65;3.90;;;11.80;78.90;;;;;;5035557;28;20041;-65
2022/03/08 02:30:41;;;;;;;6.60;3.85;;;11.90;79.30;;;;;;5050311;28;20124;-64
2022/03/08 02:33:07;;;;;;;7.00;3.97;;;12.00;79.10;;;;;;5035000;28;20041;-65
2022/03/08 02:35:33;;;;;;;6.80;3.90;;;11.80;79.00;;;;;;5027906;28;20049;-65
2022/03/08 02:38:01;;;;;;;6.18;3.70;;;11.80;75.90;;;;;;5031958;28;20522;-66
2022/03/08 02:40:29;;;;;;;6.85;3.55;;;11.90;78.90;;;;;;5027081;28;20041;-65
2022/03/08 02:42:55;;;;;;;6.35;3.90;;;11.70;76.40;;;;;;5014592;28;20054;-64
2022/03/08 02:45:21;;;;;;;6.45;4.00;;;;;;;;;;5024179;28;20191;-65
2022/03/08 02:47:47;;;;;;;7.10;3.78;;;11.70;78.80;;;;;;5034124;28;20076;-65
2022/03/08 02:50:14;;;;;;;6.07;3.70;;;11.50;76.30;;;;;;4984444;28;20049;-64
2022/03/08 02:52:41;;;;;;;6.93;3.88;;;11.60;78.80;;;;;;5034647;28;20061;-65
2022/03/08 02:55:07;;;;;;;6.28;4.00;;;11.60;78.80;;;;;;5032390;28;20128;-65
2022/03/08 02:57:33;;;;;;;6.57;4.00;;;11.70;79.00;;;;;;5027811;28;20069;-64
2022/03/08 02:59:59;;;;;;;6.60;4.13;;;11.70;78.90;;;;;;5034408;28;20483;-65
2022/03/08 03:02:25;;;;;;;7.05;4.40;;;;;;;;;;5034242;28;20029;-65
2022/03/08 03:04:50;;;;;;;6.53;4.18;;;11.70;78.90;;;;;;5033417;28;20057;-65
2022/03/08 03:07:16;;;;;;;7.63;4.25;;;11.70;76.40;;;;;;5032916;28;20041;-66
2022/03/08 03:09:42;;;;;;;6.95;4.18;;;11.80;79.00;;;;;;5034424;28;20053;-65
2022/03/08 03:12:08;;;;;;;6.07;3.95;;;11.60;78.80;;;;;;5030402;28;20129;-65
2022/03/08 03:14:34;;;;;;;6.32;4.05;;;11.80;78.90;;;;;;5048158;28;20052;-65
2022/03/08 03:17:00;;;;;;;6.45;4.10;;;11.60;78.70;;;;;;5033022;28;20450;-64
2022/03/08 03:19:26;;;;;;;6.25;3.72;;;11.40;78.70;;;;;;5032759;28;20049;-65
2022/03/08 03:21:52;;;;;;;6.78;4.20;;;11.60;78.80;;;;;;5033940;28;20132;-65
2022/03/08 03:24:17;;;;;;;6.35;4.10;;;11.60;78.70;;;;;;5033204;28;20041;-64
2022/03/08 03:26:43;;;;;;;6.88;4.20;;;11.70;76.30;;;;;;5016228;28;20090;-64
2022/03/08 03:29:09;;;;;;;8.15;4.45;;;11.20;78.50;;;;;;5032068;28;20056;-65
2022/03/08 03:31:35;;;;;;;7.32;4.40;;;11.40;78.70;;;;;;5033111;28;20045;-64
2022/03/08 03:34:01;;;;;;;8.50;4.60;;;11.20;78.50;;;;;;5033822;28;20411;-65
2022/03/08 03:36:26;;;;;;;6.72;4.40;;;11.50;78.70;;;;;;5032373;28;20083;-64
2022/03/08 03:38:53;;;;;;;7.40;4.22;;;11.50;76.30;;;;;;5032632;28;20053;-65
2022/03/08 03:41:19;;;;;;;7.00;4.55;;;11.60;79.10;;;;;;5032669;28;20484;-65
2022/03/08 03:43:44;;;;;;;6.85;4.38;;;11.60;76.30;;;;;;5032653;28;20506;-65
2022/03/08 03:46:10;;;;;;;7.15;4.43;;;11.80;78.80;;;;;;5032034;28;20029;-61
2022/03/08 03:48:36;;;;;;;6.45;4.50;;;;;;;;;;5030827;28;20049;-62
2022/03/08 03:51:03;;;;;;;6.85;4.53;;;;;;;;;;5027101;28;20049;-62
2022/03/08 03:53:29;;;;;;;7.25;4.90;;;;;;;;;;5032855;28;20541;-62
2022/03/08 03:55:54;;;;;;;7.32;4.70;;;11.60;76.20;;;;;;5033495;28;20049;-62
2022/03/08 03:58:20;;;;;;;7.80;4.93;;;11.30;78.50;;;;;;5033154;28;20088;-61
2022/03/08 04:00:46;;;;;;;6.90;4.60;;;11.50;78.70;;;;;;5033301;28;20132;-62
2022/03/08 04:03:15;;;;;;;7.22;5.22;;;11.20;78.50;;;;;;5029678;28;20089;-62
2022/03/08 04:05:40;;;;;;;7.95;4.97;;;11.50;78.80;;;;;;5026736;28;20049;-65
2022/03/08 04:08:06;;;;;;;6.78;4.63;;;11.50;76.10;;;;;;5032758;28;20046;-65
2022/03/08 04:10:32;;;;;;;9.40;5.55;;;11.70;78.70;;;;;;5032000;28;20037;-65
2022/03/08 04:12:58;;;;;;;7.70;4.88;;;11.30;78.50;;;;;;5031529;28;20051;-61
2022/03/08 04:15:24;;;;;;;12.27;5.55;;;11.50;78.60;;;;;;5031803;28;20056;-62
2022/03/08 04:17:49;;;;;;;8.27;5.32;;;11.50;78.50;;;;;;5032038;28;20053;-64
2022/03/08 04:20:16;;;;;;;8.82;5.78;;;;;;;;;;5029642;28;20045;-65
2022/03/08 04:22:42;;;;;;;10.45;5.55;;;;;;;;;;5022577;28;20116;-64
2022/03/08 04:25:08;;;;;;;8.88;5.45;;;11.30;78.60;;;;;;5028279;28;20053;-65
2022/03/08 04:27:34;;;;;;;9.15;5.80;;;11.60;79.00;;;;;;5027669;28;20049;-65
2022/03/08 04:30:00;;;;;;;9.48;6.15;;;11.50;77.10;;;;;;5032821;28;20505;-65
2022/03/08 04:32:25;;;;;;;9.15;5.68;;;11.50;78.70;;;;;;5032898;28;20041;-64
2022/03/08 04:34:51;;;;;;;8.80;5.43;;;;;;;;;;5031482;28;20395;-62
2022/03/08 04:37:17;;;;;;;9.73;6.45;;;11.40;77.30;;;;;;5045453;28;20081;-61
2022/03/08 04:39:43;;;;;;;7.85;5.60;;;11.70;76.40;;;;;;5013207;28;20148;-61
2022/03/08 04:42:09;;;;;;;11.35;6.30;;;11.20;76.30;;;;;;5030442;28;20045;-63
2022/03/08 04:44:35;;;;;;;9.25;6.22;;;11.50;78.80;;;;;;5030879;28;20037;-62
2022/03/08 04:47:00;;;;;;;9.85;6.38;;;11.30;76.10;;;;;;5032994;28;20127;-62
2022/03/08 04:49:26;;;;;;;9.18;5.75;;;11.40;78.70;;;;;;5033143;28;20556;-60
2022/03/08 04:51:52;;;;;;;10.20;6.53;;;11.60;76.30;;;;;;5033610;28;20132;-63
2022/03/08 04:54:18;;;;;;;9.52;6.20;;;11.50;78.70;;;;;;5031257;28;20049;-62
2022/03/08 04:56:43;;;;;;;10.63;6.60;;;11.60;78.90;;;;;;5048576;28;20087;-63
2022/03/08 04:59:09;;;;;;;8.60;6.20;;;11.40;78.80;;;;;;5031511;28;20049;-61
2022/03/08 05:01:35;;;;;;;9.50;6.47;;;;;;;;;;5032865;28;20033;-62
2022/03/08 05:04:01;;;;;;;10.18;6.15;;;11.30;76.20;;;;;;5031769;28;20049;-62
2022/03/08 05:06:30;;;;;;;10.55;6.53;;;11.40;78.70;;;;;;5032385;28;20038;-62
2022/03/08 05:08:56;;;;;;;10.25;6.43;;;11.20;78.70;;;;;;5032876;28;20450;-63
2022/03/08 05:11:22;;;;;;;10.45;7.10;;;11.40;78.70;;;;;;5029046;28;20125;-62
2022/03/08 05:13:48;;;;;;;10.48;6.97;;;;;;;;;;5028188;28;20125;-63
2022/03/08 05:16:14;;;;;;;9.82;6.70;;;11.30;78.50;;;;;;5004514;28;20525;-62
2022/03/08 05:18:40;;;;;;;11.00;6.97;;;;;;;;;;5032931;28;20041;-62
2022/03/08 05:21:06;;;;;;;10.15;6.85;;;11.40;78.80;;;;;;5031096;28;20081;-62
2022/03/08 05:23:32;;;;;;;10.93;6.15;;;11.30;78.90;;;;;;5032528;28;20045;-62
2022/03/08 05:25:58;;;;;;;10.20;6.32;;;;;;;;;;5030972;28;20041;-62
2022/03/08 05:28:24;;;;;;;11.45;6.57;;;11.50;78.90;;;;;;5028634;28;20096;-62
2022/03/08 05:30:50;;;;;;;10.50;6.57;;;11.50;78.90;;;;;;5012975;28;20487;-61
2022/03/08 05:33:17;;;;;;;10.55;6.63;;;11.50;78.80;;;;;;5011751;28;20400;-61
2022/03/08 05:35:42;;;;;;;9.95;6.28;;;11.40;78.80;;;;;;5032766;28;20488;-62
2022/03/08 05:38:08;;;;;;;10.85;6.30;;;11.30;79.10;;;;;;5035963;28;20049;-64
2022/03/08 05:40:34;;;;;;;9.80;6.70;;;11.30;76.40;;;;;;5034780;28;20111;-62
2022/03/08 05:43:01;;;;;;;10.52;7.00;;;11.30;78.90;;;;;;5034199;28;20053;-65
2022/03/08 05:45:28;;;;;;;11.88;6.95;;;;;;;;;;5033698;28;20057;-65
2022/03/08 05:47:54;;;;;;;12.98;7.60;;;11.30;76.30;;;;;;5035705;28;20369;-61
2022/03/08 05:50:20;;;;;;;10.50;6.80;;;11.30;78.80;;;;;;5051079;28;20052;-61
2022/03/08 05:52:45;;;;;;;11.48;6.95;;;11.20;76.20;;;;;;5034391;28;20042;-63
2022/03/08 05:55:11;;;;;;;11.43;6.53;;;11.20;78.70;;;;;;5034729;28;20045;-64
2022/03/08 05:57:37;;;;;;;10.63;7.30;;;11.40;78.80;;;;;;5035545;28;20114;-64
2022/03/08 06:00:04;;;;;;;9.75;7.00;;;11.50;78.90;;;;;;5034749;28;20080;-64
2022/03/08 06:02:30;;;;;;;11.32;7.05;;;11.30;78.70;;;;;;5031452;28;20042;-65
2022/03/08 06:04:56;;;;;;;11.23;7.13;;;11.10;78.60;;;;;;5041908;28;20133;-65
2022/03/08 06:07:22;;;;;;;10.27;6.82;;;10.90;78.40;;;;;;5031321;28;20057;-62
2022/03/08 06:09:47;;;;;;;10.73;6.75;;;11.10;78.60;;;;;;5032672;28;20046;-62
2022/03/08 06:12:14;;;;;;;11.05;7.50;;;11.20;78.10;;;;;;5020222;28;20403;-64
2022/03/08 06:14:39;;;;;;;10.32;7.18;;;11.30;78.90;;;;;;5035415;28;20442;-66
2022/03/08 06:17:06;;;;;;;11.45;7.55;;;11.10;79.40;;;;;;5034150;28;20041;-64
2022/03/08 06:19:33;;;;;;;14.50;8.55;;;11.30;78.70;;;;;;5033534;28;20503;-65
2022/03/08 06:21:59;;;;;;;11.50;6.95;;;;;;;;;;5033542;28;20124;-65
2022/03/08 06:24:25;;;;;;;11.25;7.22;;;11.30;78.60;;;;;;5030965;28;20045;-65
2022/03/08 06:26:51;;;;;;;11.00;7.30;;;10.90;78.30;;;;;;5033981;28;20037;-65
2022/03/08 06:29:17;;;;;;;10.15;7.00;;;10.90;78.20;;;;;;5035094;28;20060;-65
2022/03/08 06:31:42;;;;;;;9.75;6.90;;;11.30;78.30;;;;;;5034603;28;20050;-65
2022/03/08 06:34:08;;;;;;;11.05;7.43;;;11.30;78.30;;;;;;5035804;28;20562;-66
2022/03/08 06:36:34;;;;;;;10.57;6.65;;;11.50;75.70;;;;;;5045504;28;20042;-65
2022/03/08 06:39:01;;;;;;;12.38;6.75;;;11.50;78.30;;;;;;5026659;28;20037;-65
2022/03/08 06:41:27;;;;;;;11.82;8.10;;;11.50;78.10;;;;;;5034637;28;20444;-65
2022/03/08 06:43:53;;;;;;;11.20;7.45;;;11.20;75.00;;;;;;5050099;28;20084;-64
2022/03/08 06:46:18;;;;;;;11.85;7.00;;;11.70;78.10;;;;;;5032252;28;20045;-65
2022/03/08 06:48:45;;;;;;;12.30;7.72;;;;;;;;;;5024470;28;20052;-65
2022/03/08 06:51:10;;;;;;;11.93;7.63;;;12.00;78.10;;;;;;5026910;28;20052;-64
2022/03/08 06:53:36;;;;;;;11.18;7.28;;;12.20;78.10;;;;;;5028209;28;20045;-64
2022/03/08 06:56:02;;;;;;;11.23;7.97;;;12.10;75.20;;;;;;5023755;28;20045;-65
2022/03/08 06:58:28;;;;;;;10.25;7.22;;;12.20;77.70;;;;;;5034672;28;20103;-65
2022/03/08 07:00:54;;;;;;;13.45;7.57;;;12.20;77.60;;;;;;5032818;28;20411;-65
2022/03/08 07:03:20;;;;;;;12.05;7.95;;;12.40;77.50;;;;;;5032383;28;20053;-65
2022/03/08 07:05:46;;;;;;;11.77;7.43;;;12.10;77.30;;;;;;5016838;28;20045;-65
2022/03/08 07:08:12;;;;;;;11.40;7.70;;;12.80;77.50;;;;;;5034291;28;20103;-65
2022/03/08 07:10:38;;;;;;;13.00;7.93;;;12.80;77.20;;;;;;5030418;28;20381;-65
2022/03/08 07:13:04;;;;;;;13.63;8.18;;;12.80;77.10;;;;;;5041005;28;20047;-65
2022/03/08 07:15:30;;;;;;;12.30;7.75;;;12.70;76.90;;;;;;5033199;28;20412;-63
2022/03/08 07:17:55;;;;;;;11.75;7.50;;;12.90;76.90;;;;;;5031513;28;20125;-63
2022/03/08 07:20:21;;;;;;;11.70;7.53;;;13.10;76.80;;;;;;5018526;28;20128;-65
2022/03/08 07:22:47;;;;;;;10.98;7.80;;;13.20;76.90;;;;;;5027218;28;20107;-64
2022/03/08 07:25:15;;;;;;;12.57;8.77;;;13.20;76.70;;;;;;5034197;28;20041;-64
2022/03/08 07:27:40;;;;;;;12.52;7.75;;;13.50;76.60;;;;;;5025796;28;20061;-62
2022/03/08 07:30:07;;;;;;;13.80;8.48;;;13.20;76.40;;;;;;5029681;28;20046;-63
2022/03/08 07:32:33;;;;;;;11.20;7.57;;;13.40;73.90;;;;;;5032750;28;20041;-62
2022/03/08 07:34:59;;;;;;;11.55;7.90;;;;;;;;;;5033976;28;20058;-63
2022/03/08 07:37:25;;;;;;;11.02;7.45;;;13.80;76.70;;;;;;5031710;28;20087;-62
2022/03/08 07:39:52;;;;;;;11.00;7.40;;;14.00;76.40;;;;;;5034090;28;20124;-62
2022/03/08 07:42:19;;;;;;;12.32;8.20;;;;;;;;;;5030431;28;20056;-62
2022/03/08 07:44:45;;;;;;;12.48;8.85;;;14.00;73.40;;;;;;5026268;28;20521;-62
2022/03/08 07:47:11;;;;;;;13.05;8.40;;;14.20;75.40;;;;;;5030456;28;20042;-62
2022/03/08 07:49:37;;;;;;;13.27;8.40;;;14.30;75.90;;;;;;5031069;28;20067;-62
2022/03/08 07:52:03;;;;;;;13.10;8.30;;;14.00;75.70;;;;;;5030874;28;20514;-62
2022/03/08 07:54:29;;;;;;;11.70;7.53;;;14.40;75.70;;;;;;5032487;28;20063;-62
2022/03/08 07:56:55;;;;;;;12.85;8.63;;;;;;;;;;5032358;28;20029;-64
2022/03/08 07:59:21;;;;;;;12.13;8.50;;;14.50;75.50;;;;;;5029026;28;20050;-63
2022/03/08 08:01:47;;;;;;;12.77;8.80;;;14.70;75.60;;;;;;5003001;28;20053;-62
2022/03/08 08:04:13;;;;;;;12.05;7.53;;;14.60;75.40;;;;;;5032675;28;20093;-62
2022/03/08 08:06:39;;;;;;;14.40;9.25;;;14.60;75.30;;;;;;5032414;28;20068;-62
2022/03/08 08:09:04;;;;;;;13.27;8.30;;;14.80;72.70;;;;;;5032634;28;20076;-62
2022/03/08 08:11:30;;;;;;;12.77;8.38;;;14.80;75.30;;;;;;5014554;28;20103;-62
2022/03/08 08:13:56;;;;;;;13.23;8.73;;;14.70;72.40;;;;;;5031071;28;20053;-62
2022/03/08 08:16:23;;;;;;;12.82;9.05;;;14.80;75.10;;;;;;5032130;28;20045;-62
2022/03/08 08:18:49;;;;;;;13.10;8.50;;;14.90;75.00;;;;;;5024443;28;20108;-63
2022/03/08 08:21:15;;;;;;;13.32;8.65;;;;;;;;;;5030027;28;20074;-63
2022/03/08 08:23:41;;;;;;;12.02;8.40;;;15.20;74.90;;;;;;5033266;28;20048;-61
2022/03/08 08:26:07;;;;;;;11.75;8.00;;;;;;;;;;5030422;28;20403;-63
2022/03/08 08:28:33;;;;;;;11.80;7.93;;;15.30;74.90;;;;;;5031986;28;20034;-61
2022/03/08 08:30:59;;;;;;;13.73;8.10;;;15.10;74.80;;;;;;5031990;28;20065;-62
2022/03/08 08:33:25;;;;;;;10.18;7.80;;;15.30;74.80;;;;;;5031915;28;20052;-63
2022/03/08 08:35:50;;;;;;;12.40;7.88;;;15.20;74.60;;;;;;5030876;28;20085;-62
2022/03/08 08:38:16;;;;;;;14.38;8.32;;;15.30;74.70;;;;;;5033233;28;20049;-62
2022/03/08 08:40:42;;;;;;;13.07;8.45;;;15.10;71.60;;;;;;5032389;28;20044;-62
2022/03/08 08:43:08;;;;;;;12.85;7.88;;;15.40;74.50;;;;;;5038041;28;20033;-61
2022/03/08 08:45:37;;;;;;;12.82;7.65;;;15.40;71.70;;;;;;5030587;28;20050;-62
2022/03/08 08:48:04;;;;;;;12.25;8.25;;;15.20;74.20;;;;;;5019824;28;20046;-62
2022/03/08 08:50:30;;;;;;;11.63;7.57;;;15.10;74.00;;;;;;5021583;28;20053;-62
2022/03/08 08:52:56;;;;;;;11.07;7.25;;;15.50;74.30;;;;;;5022500;28;20041;-66
2022/03/08 08:55:23;;;;;;;10.93;7.68;;;15.50;74.10;;;;;;5031817;28;20073;-64
2022/03/08 08:57:48;;;;;;;10.23;7.95;;;15.30;74.10;;;;;;5031402;28;20060;-64
2022/03/08 09:00:14;;;;;;;10.93;7.43;;;15.50;74.20;;;;;;5032822;28;20399;-64
2022/03/08 09:02:42;;;;;;;12.57;7.70;;;15.40;74.20;;;;;;5033069;28;20053;-65
2022/03/08 09:05:08;;;;;;;15.00;8.02;;;15.40;74.20;;;;;;5032775;28;20392;-64
2022/03/08 09:07:34;;;;;;;14.30;7.80;;;15.40;74.10;;;;;;5032981;28;20053;-64
2022/03/08 09:10:00;;;;;;;12.63;7.55;;;15.50;71.40;;;;;;5032071;28;20049;-64
2022/03/08 09:12:25;;;;;;;11.45;7.47;;;15.30;74.00;;;;;;5037143;28;20487;-64
2022/03/08 09:14:51;;;;;;;13.00;6.85;;;15.50;74.30;;;;;;5034717;28;20518;-64
2022/03/08 09:17:17;;;;;;;12.60;7.53;;;15.60;72.30;;;;;;5035804;28;20045;-65
2022/03/08 09:19:43;;;;;;;10.57;7.15;;;15.60;74.40;;;;;;5026076;28;20077;-64
2022/03/08 09:22:09;;;;;;;9.82;6.35;;;15.60;74.40;;;;;;5028733;28;20384;-64
2022/03/08 09:24:35;;;;;;;10.70;6.50;;;15.60;74.30;;;;;;5036592;28;20096;-63
2022/03/08 09:27:02;;;;;;;10.95;7.05;;;;;;;;;;5027141;28;20053;-64
2022/03/08 09:29:29;;;;;;;8.85;6.05;;;;;;;;;;5033279;28;20053;-64
2022/03/08 09:31:54;;;;;;;9.80;5.95;;;15.60;74.20;;;;;;5036846;28;20391;-63
2022/03/08 09:34:20;;;;;;;8.65;6.43;;;15.70;74.10;;;;;;5036252;28;20046;-62
2022/03/08 09:36:46;;;;;;;10.13;5.60;;;15.40;73.80;;;;;;5035950;28;20447;-65
2022/03/08 09:39:12;;;;;;;9.57;6.13;;;15.50;73.80;;;;;;5018481;28;20717;-62
2022/03/08 09:41:39;;;;;;;8.45;5.32;;;15.60;71.40;;;;;;5036732;28;20479;-62
2022/03/08 09:44:05;;;;;;;10.82;5.75;;;15.50;74.00;;;;;;5025803;28;20046;-62
2022/03/08 09:46:32;;;;;;;9.98;6.10;;;15.50;74.30;;;;;;5016397;28;20046;-62
2022/03/08 09:48:58;;;;;;;8.25;5.43;;;15.60;73.90;;;;;;5025908;28;20061;-62
2022/03/08 09:51:24;;;;;;;10.15;5.35;;;15.60;73.80;;;;;;5032101;28;20049;-62
2022/03/08 09:53:53;;;;;;;8.05;5.50;;;15.20;70.10;;;;;;5018528;28;20050;-64
2022/03/08 09:56:19;;;;;;;8.93;5.85;;;15.50;74.00;;;;;;5036418;28;20128;-62
2022/03/08 09:58:45;;;;;;;8.48;5.57;;;;;;;;;;5033862;28;20491;-67
2022/03/08 10:01:11;;;;;;;10.40;5.75;;;15.40;72.90;;;;;;5032204;28;20423;-65
2022/03/08 10:03:43;;;;;;;11.80;5.82;;;15.40;74.40;;;;;;5021265;28;20052;-64
2022/03/08 10:06:09;;;;;;;11.07;6.30;;;15.10;74.00;;;;;;5016415;28;20085;-65
2022/03/08 10:08:35;;;;;;;18.17;5.97;;;15.40;74.10;;;;;;5017191;28;20281;-62
2022/03/08 10:11:11;;;;;;;11.32;5.55;;;15.30;71.60;;;;;;5034546;28;20047;-66
2022/03/08 10:13:42;;;;;;;10.52;5.35;;;15.40;74.30;;;;;;5034507;28;20052;-62
2022/03/08 10:16:25;;;;;;;7.93;5.00;;;15.10;74.10;;;;;;5050738;28;20077;-67
2022/03/08 10:18:55;;;;;;;9.98;5.18;;;15.50;74.70;;;;;;5020111;28;20125;-67
2022/03/08 10:21:38;;;;;;;12.82;4.95;;;15.30;71.80;;;;;;5030862;28;20049;-62
2022/03/08 10:24:26;;;;;;;7.72;4.90;;;15.50;70.40;;;;;;5035278;28;20049;-67
2022/03/08 10:27:03;;;;;;;7.82;4.88;;;15.40;74.50;;;;;;5035554;28;20056;-67
2022/03/08 10:29:34;;;;;;;12.63;4.60;;;15.50;74.50;;;;;;5034211;28;20057;-67
2022/03/08 10:32:11;;;;;;;10.00;5.13;;;15.40;74.10;;;;;;5035737;28;20102;-66
2022/03/08 10:34:37;;;;;;;8.52;4.90;;;15.20;74.10;;;;;;5029196;28;20061;-67
2022/03/08 10:37:15;;;;;;;8.70;4.68;;;15.30;74.20;;;;;;5031299;28;20124;-66
2022/03/08 10:39:50;;;;;;;8.93;4.90;;;15.40;74.10;;;;;;5015612;28;20050;-67
2022/03/08 10:42:24;;;;;;;9.68;4.88;;;15.40;74.30;;;;;;5015477;28;20099;-67
2022/03/08 10:44:50;;;;;;;8.82;4.78;;;15.40;74.10;;;;;;5038552;28;20056;-66
2022/03/08 10:47:16;;;;;;;7.35;4.38;;;15.40;74.40;;;;;;5033941;28;20038;-68
2022/03/08 10:49:56;;;;;;;8.48;4.68;;;15.60;70.50;;;;;;5033969;28;20180;-66
2022/03/08 10:52:29;;;;;;;6.82;4.50;;;15.40;74.60;;;;;;5022554;28;20129;-67
2022/03/08 10:54:55;;;;;;;;;;;15.50;71.80;;;;;;5023115;28;20049;-67
2022/03/08 10:57:21;;;;;;;8.10;4.13;;;15.70;74.50;;;;;;5033832;28;19921;-67
2022/03/08 10:59:54;;;;;;;8.38;4.25;;;15.50;71.70;;;;;;5034989;28;20372;-68
2022/03/08 11:02:21;;;;;;;6.82;4.40;;;15.40;74.10;;;;;;5034919;28;20047;-67
2022/03/08 11:04:47;;;;;;;7.63;4.63;;;15.60;74.00;;;;;;5034698;28;20395;-67
2022/03/08 11:07:13;;;;;;;7.13;4.10;;;15.80;73.80;;;;;;5034329;28;20048;-67
2022/03/08 11:09:39;;;;;;;8.30;4.20;;;15.80;73.80;;;;;;5020730;28;20050;-66
2022/03/08 11:12:06;;;;;;;7.25;4.03;;;15.80;73.60;;;;;;5030183;28;20492;-67
2022/03/08 11:14:31;;;;;;;7.95;3.50;;;15.80;73.50;;;;;;5013556;28;20053;-66
2022/03/08 11:16:57;;;;;;;7.80;3.92;;;15.50;73.40;;;;;;5026302;28;20395;-67
2022/03/08 11:19:26;;;;;;;7.85;3.85;;;15.70;73.50;;;;;;5033379;28;20050;-68
2022/03/08 11:21:51;;;;;;;7.90;3.60;;;15.60;73.60;;;;;;5034757;28;20041;-68
2022/03/08 11:24:17;;;;;;;6.85;3.58;;;15.40;73.30;;;;;;5016985;28;20414;-67
2022/03/08 11:26:43;;;;;;;5.80;3.47;;;15.60;73.20;;;;;;5023345;28;20503;-65
2022/03/08 11:29:09;;;;;;;6.10;3.45;;;15.70;73.30;;;;;;5032806;28;20124;-67
2022/03/08 11:31:35;;;;;;;14.70;4.20;;;15.80;73.20;;;;;;5031423;28;20049;-67
2022/03/08 11:34:13;;;;;;;15.75;4.03;;;16.00;73.10;;;;;;5015876;28;20062;-67
2022/03/08 11:37:09;;;;;;;11.18;3.65;;;16.00;70.30;;;;;;5033070;28;20132;-63
2022/03/08 11:39:39;;;;;;;7.68;3.13;;;16.20;73.00;;;;;;5012092;28;20133;-66
2022/03/08 11:42:17;;;;;;;5.30;2.88;;;16.30;72.80;;;;;;5033137;28;20048;-61
2022/03/08 11:45:03;;;;;;;6.38;3.35;;;16.20;72.60;;;;;;5033497;28;20521;-65
2022/03/08 11:47:55;;;;;;;6.97;3.40;;;16.50;68.40;;;;;;5038120;28;20522;-65
2022/03/08 11:50:27;;;;;;;7.28;3.28;;;16.60;69.70;;;;;;5014515;28;20096;-66
2022/03/08 11:53:14;;;;;;;11.32;3.80;;;16.60;72.40;;;;;;5014187;28;20037;-62
2022/03/08 11:55:43;;;;;;;15.93;3.83;;;16.60;72.40;;;;;;5012961;28;20049;-67
2022/03/08 11:58:09;;;;;;;6.32;3.55;;;16.60;72.10;;;;;;5014098;28;20529;-62
2022/03/08 12:00:55;;;;;;;6.32;3.40;;;16.60;67.90;;;;;;5030823;28;20491;-61
2022/03/08 12:03:23;;;;;;;6.85;3.13;;;16.80;72.10;;;;;;5016032;28;20045;-62
2022/03/08 12:05:59;;;;;;;6.35;3.10;;;17.00;69.00;;;;;;5034082;28;20114;-61
2022/03/08 12:08:27;;;;;;;8.15;3.58;;;16.60;71.50;;;;;;5033993;28;20045;-61
2022/03/08 12:11:01;;;;;;;6.13;3.42;;;;;;;;;;5031833;28;20136;-62
2022/03/08 12:13:28;;;;;;;6.75;3.40;;;16.70;71.50;;;;;;5033858;28;20045;-61
2022/03/08 12:16:09;;;;;;;6.32;3.47;;;16.70;67.30;;;;;;5032124;28;20053;-62
2022/03/08 12:18:41;;;;;;;7.60;3.30;;;16.70;71.40;;;;;;5013835;28;20049;-68
2022/03/08 12:21:21;;;;;;;8.65;3.55;;;16.70;67.30;;;;;;5025273;28;20053;-61
2022/03/08 12:23:52;;;;;;;6.20;3.38;;;16.70;71.50;;;;;;5033382;28;20048;-61
2022/03/08 12:26:29;;;;;;;5.72;3.25;;;16.60;71.50;;;;;;5023330;28;20048;-61
2022/03/08 12:29:15;;;;;;;4.90;2.80;;;16.40;66.90;;;;;;5053282;28;20053;-61
2022/03/08 12:31:56;;;;;;;6.32;3.08;;;16.50;71.20;;;;;;5032445;28;20176;-64
2022/03/08 12:34:45;;;;;;;6.53;3.40;;;16.70;66.90;;;;;;5020911;28;20056;-64
2022/03/08 12:37:12;;;;;;;5.63;3.13;;;16.70;71.30;;;;;;5013883;28;20046;-64
2022/03/08 12:40:15;;;;;;;5.10;2.65;;;16.50;68.70;;;;;;5012853;28;20041;-64
2022/03/08 12:42:44;;;;;;;6.53;3.40;;;16.30;71.10;;;;;;4972370;28;20058;-66
2022/03/08 12:45:20;;;;;;;5.55;3.20;;;16.50;71.20;;;;;;4972399;28;20089;-65
2022/03/08 12:48:06;;;;;;;5.43;2.95;;;16.60;71.40;;;;;;4976798;28;20062;-61
2022/03/08 12:50:52;;;;;;;6.20;3.25;;;;;;;;;;4970888;28;20042;-66
2022/03/08 12:53:25;;;;;;;8.02;3.25;;;16.60;71.40;;;;;;4975908;28;20061;-65
2022/03/08 12:55:55;;;;;;;7.90;3.45;;;16.80;71.00;;;;;;4976259;28;20055;-65
2022/03/08 12:58:22;;;;;;;6.97;3.33;;;16.80;71.10;;;;;;4976330;28;20218;-65